sensor_id;sensor_type;location;lat;lon;timestamp;P1;durP1;ratioP1;P2;durP2;ratioP2
39994;SDS011;25686;51.908;10.418;2022-12-18T00:01:38;4.27;;;1.27;;
39994;SDS011;25686;51.908;10.418;2022-12-18T00:03:39;2.23;;;1.23;;
39994;SDS011;25686;51.908;10.418;2022-12-18T00:05:46;3.00;;;1.10;;
39994;SDS011;25686;51.908;10.418;2022-12-18T00:07:47;3.47;;;1.00;;
39994;SDS011;25686;51.908;10.418;2022-12-18T00:09:49;2.03;;;1.00;;
39994;SDS011;25686;51.908;10.418;2022-12-18T00:11:50;4.33;;;1.63;;
39994;SDS011;25686;51.908;10.418;2022-12-18T00:13:51;3.90;;;1.80;;
39994;SDS011;25686;51.908;10.418;2022-12-18T00:15:52;5.27;;;2.47;;
39994;SDS011;25686;51.908;10.418;2022-12-18T00:17:53;5.93;;;2.13;;
39994;SDS011;25686;51.908;10.418;2022-12-18T00:19:54;2.73;;;1.20;;
39994;SDS011;25686;51.908;10.418;2022-12-18T00:21:55;2.70;;;1.13;;
39994;SDS011;25686;51.908;10.418;2022-12-18T00:23:56;5.20;;;1.30;;
39994;SDS011;25686;51.908;10.418;2022-12-18T00:26:00;3.60;;;1.00;;
39994;SDS011;25686;51.908;10.418;2022-12-18T00:28:04;4.83;;;1.50;;
39994;SDS011;25686;51.908;10.418;2022-12-18T00:30:05;2.07;;;0.80;;
39994;SDS011;25686;51.908;10.418;2022-12-18T00:32:07;2.93;;;0.93;;
39994;SDS011;25686;51.908;10.418;2022-12-18T00:34:11;4.87;;;1.50;;
39994;SDS011;25686;51.908;10.418;2022-12-18T00:36:14;4.47;;;1.70;;
39994;SDS011;25686;51.908;10.418;2022-12-18T00:38:16;2.73;;;1.37;;
39994;SDS011;25686;51.908;10.418;2022-12-18T00:40:17;2.73;;;0.77;;
39994;SDS011;25686;51.908;10.418;2022-12-18T00:42:18;2.57;;;1.00;;
39994;SDS011;25686;51.908;10.418;2022-12-18T00:44:37;5.20;;;0.80;;
39994;SDS011;25686;51.908;10.418;2022-12-18T00:46:38;3.07;;;0.90;;
39994;SDS011;25686;51.908;10.418;2022-12-18T00:48:39;2.83;;;1.17;;
39994;SDS011;25686;51.908;10.418;2022-12-18T00:50:40;4.43;;;1.10;;
39994;SDS011;25686;51.908;10.418;2022-12-18T00:52:41;3.17;;;1.00;;
39994;SDS011;25686;51.908;10.418;2022-12-18T00:54:42;2.83;;;1.23;;
39994;SDS011;25686;51.908;10.418;2022-12-18T00:56:43;5.00;;;1.30;;
39994;SDS011;25686;51.908;10.418;2022-12-18T00:58:44;4.90;;;1.57;;
39994;SDS011;25686;51.908;10.418;2022-12-18T01:00:45;3.33;;;1.50;;
39994;SDS011;25686;51.908;10.418;2022-12-18T01:02:46;5.67;;;1.37;;
39994;SDS011;25686;51.908;10.418;2022-12-18T01:04:47;2.87;;;1.37;;
39994;SDS011;25686;51.908;10.418;2022-12-18T01:06:49;2.97;;;1.33;;
39994;SDS011;25686;51.908;10.418;2022-12-18T01:08:50;2.23;;;1.50;;
39994;SDS011;25686;51.908;10.418;2022-12-18T01:10:51;3.97;;;1.60;;
39994;SDS011;25686;51.908;10.418;2022-12-18T01:12:52;2.80;;;1.47;;
39994;SDS011;25686;51.908;10.418;2022-12-18T01:14:53;2.27;;;1.20;;
39994;SDS011;25686;51.908;10.418;2022-12-18T01:16:54;4.17;;;1.43;;
39994;SDS011;25686;51.908;10.418;2022-12-18T01:18:55;1.87;;;0.77;;
39994;SDS011;25686;51.908;10.418;2022-12-18T01:20:56;1.63;;;0.77;;
39994;SDS011;25686;51.908;10.418;2022-12-18T01:22:57;1.00;;;0.90;;
39994;SDS011;25686;51.908;10.418;2022-12-18T01:24:58;1.90;;;1.10;;
39994;SDS011;25686;51.908;10.418;2022-12-18T01:26:59;4.83;;;1.07;;
39994;SDS011;25686;51.908;10.418;2022-12-18T01:29:00;1.40;;;0.80;;
39994;SDS011;25686;51.908;10.418;2022-12-18T01:33:14;1.13;;;0.80;;
39994;SDS011;25686;51.908;10.418;2022-12-18T01:35:15;4.33;;;1.00;;
39994;SDS011;25686;51.908;10.418;2022-12-18T01:37:16;2.10;;;0.90;;
39994;SDS011;25686;51.908;10.418;2022-12-18T01:39:17;5.40;;;1.20;;
39994;SDS011;25686;51.908;10.418;2022-12-18T01:41:22;3.77;;;1.40;;
39994;SDS011;25686;51.908;10.418;2022-12-18T01:43:40;4.93;;;1.40;;
39994;SDS011;25686;51.908;10.418;2022-12-18T01:45:41;3.07;;;1.20;;
39994;SDS011;25686;51.908;10.418;2022-12-18T01:49:46;4.23;;;1.33;;
39994;SDS011;25686;51.908;10.418;2022-12-18T01:51:47;2.37;;;1.50;;
39994;SDS011;25686;51.908;10.418;2022-12-18T01:53:48;2.70;;;1.30;;
39994;SDS011;25686;51.908;10.418;2022-12-18T01:55:50;5.73;;;1.40;;
39994;SDS011;25686;51.908;10.418;2022-12-18T01:57:52;1.90;;;1.30;;
39994;SDS011;25686;51.908;10.418;2022-12-18T01:59:55;2.50;;;1.20;;
39994;SDS011;25686;51.908;10.418;2022-12-18T02:01:57;2.47;;;1.20;;
39994;SDS011;25686;51.908;10.418;2022-12-18T02:04:18;2.37;;;1.47;;
39994;SDS011;25686;51.908;10.418;2022-12-18T02:06:21;2.27;;;1.23;;
39994;SDS011;25686;51.908;10.418;2022-12-18T02:08:37;2.67;;;1.50;;
39994;SDS011;25686;51.908;10.418;2022-12-18T02:12:48;2.53;;;1.40;;
39994;SDS011;25686;51.908;10.418;2022-12-18T02:17:11;1.10;;;1.00;;
39994;SDS011;25686;51.908;10.418;2022-12-18T02:21:27;4.47;;;0.90;;
39994;SDS011;25686;51.908;10.418;2022-12-18T02:25:51;2.50;;;1.17;;
39994;SDS011;25686;51.908;10.418;2022-12-18T02:27:53;4.23;;;1.00;;
39994;SDS011;25686;51.908;10.418;2022-12-18T02:29:55;1.23;;;0.97;;
39994;SDS011;25686;51.908;10.418;2022-12-18T02:31:58;2.90;;;0.90;;
39994;SDS011;25686;51.908;10.418;2022-12-18T02:34:00;1.83;;;1.07;;
39994;SDS011;25686;51.908;10.418;2022-12-18T02:36:03;5.53;;;1.37;;
39994;SDS011;25686;51.908;10.418;2022-12-18T02:38:04;1.87;;;0.90;;
39994;SDS011;25686;51.908;10.418;2022-12-18T02:40:06;1.27;;;0.90;;
39994;SDS011;25686;51.908;10.418;2022-12-18T02:42:07;4.43;;;1.00;;
39994;SDS011;25686;51.908;10.418;2022-12-18T02:44:10;4.07;;;0.90;;
39994;SDS011;25686;51.908;10.418;2022-12-18T02:46:25;0.80;;;0.70;;
39994;SDS011;25686;51.908;10.418;2022-12-18T02:48:30;2.27;;;1.00;;
39994;SDS011;25686;51.908;10.418;2022-12-18T02:50:35;3.40;;;0.90;;
39994;SDS011;25686;51.908;10.418;2022-12-18T02:52:52;2.20;;;1.17;;
39994;SDS011;25686;51.908;10.418;2022-12-18T02:55:13;2.77;;;0.97;;
39994;SDS011;25686;51.908;10.418;2022-12-18T02:57:19;4.00;;;0.80;;
39994;SDS011;25686;51.908;10.418;2022-12-18T02:59:29;2.27;;;0.90;;
39994;SDS011;25686;51.908;10.418;2022-12-18T03:01:34;2.77;;;0.97;;
39994;SDS011;25686;51.908;10.418;2022-12-18T03:03:42;1.77;;;0.77;;
39994;SDS011;25686;51.908;10.418;2022-12-18T03:05:47;2.20;;;0.93;;
39994;SDS011;25686;51.908;10.418;2022-12-18T03:07:51;2.27;;;0.80;;
39994;SDS011;25686;51.908;10.418;2022-12-18T03:09:55;2.80;;;0.70;;
39994;SDS011;25686;51.908;10.418;2022-12-18T03:12:01;1.33;;;0.90;;
39994;SDS011;25686;51.908;10.418;2022-12-18T03:14:21;1.47;;;0.80;;
39994;SDS011;25686;51.908;10.418;2022-12-18T03:16:25;0.97;;;0.90;;
39994;SDS011;25686;51.908;10.418;2022-12-18T03:18:30;1.33;;;0.70;;
39994;SDS011;25686;51.908;10.418;2022-12-18T03:20:34;1.40;;;0.90;;
39994;SDS011;25686;51.908;10.418;2022-12-18T03:22:36;1.03;;;0.70;;
39994;SDS011;25686;51.908;10.418;2022-12-18T03:24:38;0.80;;;0.70;;
39994;SDS011;25686;51.908;10.418;2022-12-18T03:26:40;1.47;;;0.80;;
39994;SDS011;25686;51.908;10.418;2022-12-18T03:28:46;1.70;;;0.77;;
39994;SDS011;25686;51.908;10.418;2022-12-18T03:30:49;0.97;;;0.80;;
39994;SDS011;25686;51.908;10.418;2022-12-18T03:32:53;2.60;;;0.90;;
39994;SDS011;25686;51.908;10.418;2022-12-18T03:34:58;1.77;;;0.70;;
39994;SDS011;25686;51.908;10.418;2022-12-18T03:37:03;2.77;;;0.70;;
39994;SDS011;25686;51.908;10.418;2022-12-18T03:39:04;1.87;;;0.57;;
39994;SDS011;25686;51.908;10.418;2022-12-18T03:43:10;2.80;;;1.20;;
39994;SDS011;25686;51.908;10.418;2022-12-18T03:45:20;3.50;;;1.13;;
39994;SDS011;25686;51.908;10.418;2022-12-18T03:47:27;4.00;;;1.17;;
39994;SDS011;25686;51.908;10.418;2022-12-18T03:49:36;4.63;;;1.73;;
39994;SDS011;25686;51.908;10.418;2022-12-18T03:51:43;6.20;;;2.03;;
39994;SDS011;25686;51.908;10.418;2022-12-18T03:53:58;4.03;;;1.50;;
39994;SDS011;25686;51.908;10.418;2022-12-18T03:56:00;2.33;;;1.13;;
39994;SDS011;25686;51.908;10.418;2022-12-18T03:58:03;6.20;;;1.10;;
39994;SDS011;25686;51.908;10.418;2022-12-18T04:00:09;1.87;;;1.10;;
39994;SDS011;25686;51.908;10.418;2022-12-18T04:02:11;3.47;;;1.37;;
39994;SDS011;25686;51.908;10.418;2022-12-18T04:04:12;3.47;;;1.20;;
39994;SDS011;25686;51.908;10.418;2022-12-18T04:06:14;1.70;;;1.00;;
39994;SDS011;25686;51.908;10.418;2022-12-18T04:08:15;3.40;;;1.20;;
39994;SDS011;25686;51.908;10.418;2022-12-18T04:10:17;3.37;;;1.53;;
39994;SDS011;25686;51.908;10.418;2022-12-18T04:12:18;3.60;;;1.50;;
39994;SDS011;25686;51.908;10.418;2022-12-18T04:14:19;2.03;;;0.90;;
39994;SDS011;25686;51.908;10.418;2022-12-18T04:16:20;1.60;;;1.00;;
39994;SDS011;25686;51.908;10.418;2022-12-18T04:18:21;3.67;;;1.10;;
39994;SDS011;25686;51.908;10.418;2022-12-18T04:20:22;1.83;;;0.93;;
39994;SDS011;25686;51.908;10.418;2022-12-18T04:22:23;2.80;;;1.27;;
39994;SDS011;25686;51.908;10.418;2022-12-18T04:24:24;1.83;;;0.97;;
39994;SDS011;25686;51.908;10.418;2022-12-18T04:26:25;6.93;;;1.50;;
39994;SDS011;25686;51.908;10.418;2022-12-18T04:28:26;2.30;;;1.20;;
39994;SDS011;25686;51.908;10.418;2022-12-18T04:30:27;1.97;;;1.10;;
39994;SDS011;25686;51.908;10.418;2022-12-18T04:32:28;2.33;;;1.30;;
39994;SDS011;25686;51.908;10.418;2022-12-18T04:34:29;2.10;;;1.23;;
39994;SDS011;25686;51.908;10.418;2022-12-18T04:36:30;3.20;;;1.33;;
39994;SDS011;25686;51.908;10.418;2022-12-18T04:38:31;2.27;;;1.23;;
39994;SDS011;25686;51.908;10.418;2022-12-18T04:40:32;1.83;;;1.20;;
39994;SDS011;25686;51.908;10.418;2022-12-18T04:42:33;1.80;;;1.00;;
39994;SDS011;25686;51.908;10.418;2022-12-18T04:44:34;2.30;;;1.20;;
39994;SDS011;25686;51.908;10.418;2022-12-18T04:46:35;2.63;;;1.03;;
39994;SDS011;25686;51.908;10.418;2022-12-18T04:48:36;2.30;;;1.20;;
39994;SDS011;25686;51.908;10.418;2022-12-18T04:50:37;2.60;;;1.00;;
39994;SDS011;25686;51.908;10.418;2022-12-18T04:52:39;3.03;;;1.40;;
39994;SDS011;25686;51.908;10.418;2022-12-18T04:54:40;2.23;;;1.07;;
39994;SDS011;25686;51.908;10.418;2022-12-18T04:56:41;3.27;;;1.20;;
39994;SDS011;25686;51.908;10.418;2022-12-18T04:58:42;3.50;;;1.30;;
39994;SDS011;25686;51.908;10.418;2022-12-18T05:00:44;2.57;;;1.00;;
39994;SDS011;25686;51.908;10.418;2022-12-18T05:02:45;1.37;;;0.90;;
39994;SDS011;25686;51.908;10.418;2022-12-18T05:04:46;2.47;;;0.90;;
39994;SDS011;25686;51.908;10.418;2022-12-18T05:06:46;2.03;;;1.10;;
39994;SDS011;25686;51.908;10.418;2022-12-18T05:08:47;2.73;;;1.10;;
39994;SDS011;25686;51.908;10.418;2022-12-18T05:10:49;0.70;;;0.70;;
39994;SDS011;25686;51.908;10.418;2022-12-18T05:12:50;1.03;;;0.83;;
39994;SDS011;25686;51.908;10.418;2022-12-18T05:14:59;2.93;;;1.00;;
39994;SDS011;25686;51.908;10.418;2022-12-18T05:17:00;1.83;;;0.80;;
39994;SDS011;25686;51.908;10.418;2022-12-18T05:19:02;2.20;;;0.70;;
39994;SDS011;25686;51.908;10.418;2022-12-18T05:21:03;1.90;;;0.70;;
39994;SDS011;25686;51.908;10.418;2022-12-18T05:23:04;2.27;;;1.10;;
39994;SDS011;25686;51.908;10.418;2022-12-18T05:25:05;2.03;;;0.83;;
39994;SDS011;25686;51.908;10.418;2022-12-18T05:27:06;1.80;;;0.80;;
39994;SDS011;25686;51.908;10.418;2022-12-18T05:29:07;1.87;;;0.80;;
39994;SDS011;25686;51.908;10.418;2022-12-18T05:31:12;1.90;;;0.80;;
39994;SDS011;25686;51.908;10.418;2022-12-18T05:33:13;2.13;;;1.10;;
39994;SDS011;25686;51.908;10.418;2022-12-18T05:35:14;1.10;;;0.70;;
39994;SDS011;25686;51.908;10.418;2022-12-18T05:37:15;1.37;;;0.83;;
39994;SDS011;25686;51.908;10.418;2022-12-18T05:39:16;1.30;;;0.80;;
39994;SDS011;25686;51.908;10.418;2022-12-18T05:41:17;2.50;;;0.77;;
39994;SDS011;25686;51.908;10.418;2022-12-18T05:43:19;1.13;;;0.60;;
39994;SDS011;25686;51.908;10.418;2022-12-18T05:45:21;1.80;;;0.60;;
39994;SDS011;25686;51.908;10.418;2022-12-18T05:47:22;1.73;;;0.50;;
39994;SDS011;25686;51.908;10.418;2022-12-18T05:49:23;1.13;;;0.60;;
39994;SDS011;25686;51.908;10.418;2022-12-18T05:51:24;0.70;;;0.70;;
39994;SDS011;25686;51.908;10.418;2022-12-18T05:53:25;2.87;;;0.83;;
39994;SDS011;25686;51.908;10.418;2022-12-18T05:55:26;0.70;;;0.60;;
39994;SDS011;25686;51.908;10.418;2022-12-18T05:57:27;1.63;;;0.77;;
39994;SDS011;25686;51.908;10.418;2022-12-18T05:59:29;2.50;;;1.00;;
39994;SDS011;25686;51.908;10.418;2022-12-18T06:01:30;1.07;;;0.90;;
39994;SDS011;25686;51.908;10.418;2022-12-18T06:03:31;2.13;;;0.70;;
39994;SDS011;25686;51.908;10.418;2022-12-18T06:05:39;2.40;;;0.63;;
39994;SDS011;25686;51.908;10.418;2022-12-18T06:07:40;1.33;;;0.60;;
39994;SDS011;25686;51.908;10.418;2022-12-18T06:09:41;0.73;;;0.53;;
39994;SDS011;25686;51.908;10.418;2022-12-18T06:11:42;1.37;;;0.53;;
39994;SDS011;25686;51.908;10.418;2022-12-18T06:13:43;2.13;;;0.60;;
39994;SDS011;25686;51.908;10.418;2022-12-18T06:15:44;0.70;;;0.70;;
39994;SDS011;25686;51.908;10.418;2022-12-18T06:17:45;1.47;;;0.97;;
39994;SDS011;25686;51.908;10.418;2022-12-18T06:19:46;3.00;;;0.80;;
39994;SDS011;25686;51.908;10.418;2022-12-18T06:21:47;3.43;;;0.80;;
39994;SDS011;25686;51.908;10.418;2022-12-18T06:23:49;1.43;;;0.70;;
39994;SDS011;25686;51.908;10.418;2022-12-18T06:25:50;0.50;;;0.50;;
39994;SDS011;25686;51.908;10.418;2022-12-18T06:27:51;1.53;;;1.10;;
39994;SDS011;25686;51.908;10.418;2022-12-18T06:29:52;2.00;;;1.00;;
39994;SDS011;25686;51.908;10.418;2022-12-18T06:31:53;1.33;;;0.80;;
39994;SDS011;25686;51.908;10.418;2022-12-18T06:33:54;1.73;;;0.90;;
39994;SDS011;25686;51.908;10.418;2022-12-18T06:36:02;1.00;;;0.80;;
39994;SDS011;25686;51.908;10.418;2022-12-18T06:38:03;0.93;;;0.80;;
39994;SDS011;25686;51.908;10.418;2022-12-18T06:40:05;1.53;;;0.90;;
39994;SDS011;25686;51.908;10.418;2022-12-18T06:42:06;5.37;;;2.40;;
39994;SDS011;25686;51.908;10.418;2022-12-18T06:44:07;3.33;;;2.10;;
39994;SDS011;25686;51.908;10.418;2022-12-18T06:46:08;2.77;;;1.60;;
39994;SDS011;25686;51.908;10.418;2022-12-18T06:48:09;1.83;;;1.37;;
39994;SDS011;25686;51.908;10.418;2022-12-18T06:50:10;3.43;;;1.27;;
39994;SDS011;25686;51.908;10.418;2022-12-18T06:52:12;1.97;;;1.00;;
39994;SDS011;25686;51.908;10.418;2022-12-18T06:54:13;1.00;;;0.90;;
39994;SDS011;25686;51.908;10.418;2022-12-18T06:56:14;1.50;;;1.00;;
39994;SDS011;25686;51.908;10.418;2022-12-18T06:58:15;3.17;;;1.40;;
39994;SDS011;25686;51.908;10.418;2022-12-18T07:00:16;3.53;;;1.30;;
39994;SDS011;25686;51.908;10.418;2022-12-18T07:02:17;2.00;;;1.20;;
39994;SDS011;25686;51.908;10.418;2022-12-18T07:04:18;2.63;;;1.17;;
39994;SDS011;25686;51.908;10.418;2022-12-18T07:06:19;2.70;;;1.47;;
39994;SDS011;25686;51.908;10.418;2022-12-18T07:08:21;1.53;;;1.13;;
39994;SDS011;25686;51.908;10.418;2022-12-18T07:10:22;1.63;;;1.10;;
39994;SDS011;25686;51.908;10.418;2022-12-18T07:12:23;4.70;;;1.10;;
39994;SDS011;25686;51.908;10.418;2022-12-18T07:14:24;5.63;;;1.23;;
39994;SDS011;25686;51.908;10.418;2022-12-18T07:16:25;2.10;;;1.10;;
39994;SDS011;25686;51.908;10.418;2022-12-18T07:18:28;1.07;;;0.80;;
39994;SDS011;25686;51.908;10.418;2022-12-18T07:20:29;2.73;;;1.07;;
39994;SDS011;25686;51.908;10.418;2022-12-18T07:22:30;2.97;;;0.83;;
39994;SDS011;25686;51.908;10.418;2022-12-18T07:24:32;2.43;;;1.00;;
39994;SDS011;25686;51.908;10.418;2022-12-18T07:26:33;2.40;;;0.90;;
39994;SDS011;25686;51.908;10.418;2022-12-18T07:28:35;1.33;;;0.90;;
39994;SDS011;25686;51.908;10.418;2022-12-18T07:30:37;2.47;;;1.00;;
39994;SDS011;25686;51.908;10.418;2022-12-18T07:32:38;1.70;;;1.00;;
39994;SDS011;25686;51.908;10.418;2022-12-18T07:34:39;2.30;;;1.37;;
39994;SDS011;25686;51.908;10.418;2022-12-18T07:36:40;2.53;;;1.60;;
39994;SDS011;25686;51.908;10.418;2022-12-18T07:38:41;6.83;;;1.53;;
39994;SDS011;25686;51.908;10.418;2022-12-18T07:40:42;4.80;;;1.70;;
39994;SDS011;25686;51.908;10.418;2022-12-18T07:42:43;2.13;;;1.30;;
39994;SDS011;25686;51.908;10.418;2022-12-18T07:44:44;2.83;;;1.90;;
39994;SDS011;25686;51.908;10.418;2022-12-18T07:46:45;2.90;;;1.70;;
39994;SDS011;25686;51.908;10.418;2022-12-18T07:48:46;3.50;;;1.60;;
39994;SDS011;25686;51.908;10.418;2022-12-18T07:50:47;4.07;;;2.00;;
39994;SDS011;25686;51.908;10.418;2022-12-18T07:52:48;2.57;;;1.20;;
39994;SDS011;25686;51.908;10.418;2022-12-18T07:54:49;2.30;;;1.57;;
39994;SDS011;25686;51.908;10.418;2022-12-18T07:56:50;2.20;;;1.00;;
39994;SDS011;25686;51.908;10.418;2022-12-18T07:58:52;2.00;;;1.67;;
39994;SDS011;25686;51.908;10.418;2022-12-18T08:00:54;3.97;;;2.23;;
39994;SDS011;25686;51.908;10.418;2022-12-18T08:02:55;5.30;;;1.50;;
39994;SDS011;25686;51.908;10.418;2022-12-18T08:04:56;3.37;;;1.60;;
39994;SDS011;25686;51.908;10.418;2022-12-18T08:06:57;1.90;;;1.50;;
39994;SDS011;25686;51.908;10.418;2022-12-18T08:08:58;1.10;;;1.00;;
39994;SDS011;25686;51.908;10.418;2022-12-18T08:10:59;3.23;;;1.00;;
39994;SDS011;25686;51.908;10.418;2022-12-18T08:13:00;0.80;;;0.80;;
39994;SDS011;25686;51.908;10.418;2022-12-18T08:15:01;2.67;;;1.10;;
39994;SDS011;25686;51.908;10.418;2022-12-18T08:17:02;3.73;;;1.80;;
39994;SDS011;25686;51.908;10.418;2022-12-18T08:19:03;6.30;;;2.10;;
39994;SDS011;25686;51.908;10.418;2022-12-18T08:21:24;4.23;;;1.63;;
39994;SDS011;25686;51.908;10.418;2022-12-18T08:23:26;6.30;;;1.73;;
39994;SDS011;25686;51.908;10.418;2022-12-18T08:25:27;2.93;;;1.80;;
39994;SDS011;25686;51.908;10.418;2022-12-18T08:27:28;6.73;;;3.40;;
39994;SDS011;25686;51.908;10.418;2022-12-18T08:29:29;3.47;;;2.00;;
39994;SDS011;25686;51.908;10.418;2022-12-18T08:31:30;4.30;;;1.60;;
39994;SDS011;25686;51.908;10.418;2022-12-18T08:33:32;5.80;;;2.90;;
39994;SDS011;25686;51.908;10.418;2022-12-18T08:35:37;4.77;;;2.50;;
39994;SDS011;25686;51.908;10.418;2022-12-18T08:37:38;4.43;;;2.97;;
39994;SDS011;25686;51.908;10.418;2022-12-18T08:39:39;4.97;;;3.53;;
39994;SDS011;25686;51.908;10.418;2022-12-18T08:41:40;15.57;;;5.70;;
39994;SDS011;25686;51.908;10.418;2022-12-18T08:43:41;18.40;;;6.83;;
39994;SDS011;25686;51.908;10.418;2022-12-18T08:46:00;18.10;;;6.77;;
39994;SDS011;25686;51.908;10.418;2022-12-18T08:48:01;13.00;;;6.27;;
39994;SDS011;25686;51.908;10.418;2022-12-18T08:50:02;13.73;;;5.90;;
39994;SDS011;25686;51.908;10.418;2022-12-18T08:52:04;8.30;;;4.37;;
39994;SDS011;25686;51.908;10.418;2022-12-18T08:54:05;10.93;;;5.17;;
39994;SDS011;25686;51.908;10.418;2022-12-18T08:56:06;9.33;;;5.40;;
39994;SDS011;25686;51.908;10.418;2022-12-18T08:58:08;4.85;;;2.92;;
39994;SDS011;25686;51.908;10.418;2022-12-18T09:00:09;7.80;;;3.80;;
39994;SDS011;25686;51.908;10.418;2022-12-18T09:02:10;3.17;;;1.98;;
39994;SDS011;25686;51.908;10.418;2022-12-18T09:04:11;5.22;;;3.22;;
39994;SDS011;25686;51.908;10.418;2022-12-18T09:06:14;7.13;;;3.90;;
39994;SDS011;25686;51.908;10.418;2022-12-18T09:08:16;4.45;;;3.80;;
39994;SDS011;25686;51.908;10.418;2022-12-18T09:10:17;5.25;;;3.95;;
39994;SDS011;25686;51.908;10.418;2022-12-18T09:12:18;4.63;;;4.22;;
39994;SDS011;25686;51.908;10.418;2022-12-18T09:14:19;5.28;;;4.78;;
39994;SDS011;25686;51.908;10.418;2022-12-18T09:16:20;5.68;;;5.18;;
39994;SDS011;25686;51.908;10.418;2022-12-18T09:18:22;6.70;;;5.30;;
39994;SDS011;25686;51.908;10.418;2022-12-18T09:20:23;7.03;;;6.32;;
39994;SDS011;25686;51.908;10.418;2022-12-18T09:22:24;9.35;;;8.45;;
39994;SDS011;25686;51.908;10.418;2022-12-18T09:24:25;10.13;;;9.02;;
39994;SDS011;25686;51.908;10.418;2022-12-18T09:26:26;7.63;;;6.93;;
39994;SDS011;25686;51.908;10.418;2022-12-18T09:28:27;8.35;;;7.55;;
39994;SDS011;25686;51.908;10.418;2022-12-18T09:30:29;8.68;;;7.93;;
39994;SDS011;25686;51.908;10.418;2022-12-18T09:32:29;9.65;;;8.35;;
39994;SDS011;25686;51.908;10.418;2022-12-18T09:34:30;9.38;;;8.45;;
39994;SDS011;25686;51.908;10.418;2022-12-18T09:36:32;8.98;;;8.13;;
39994;SDS011;25686;51.908;10.418;2022-12-18T09:38:34;8.25;;;7.40;;
39994;SDS011;25686;51.908;10.418;2022-12-18T09:40:36;5.05;;;4.55;;
39994;SDS011;25686;51.908;10.418;2022-12-18T09:42:40;5.30;;;4.80;;
39994;SDS011;25686;51.908;10.418;2022-12-18T09:44:42;5.57;;;5.07;;
39994;SDS011;25686;51.908;10.418;2022-12-18T09:49:07;4.78;;;3.08;;
39994;SDS011;25686;51.908;10.418;2022-12-18T09:51:13;4.60;;;2.90;;
39994;SDS011;25686;51.908;10.418;2022-12-18T09:53:17;4.40;;;3.30;;
39994;SDS011;25686;51.908;10.418;2022-12-18T09:55:24;4.80;;;3.00;;
39994;SDS011;25686;51.908;10.418;2022-12-18T09:57:26;4.65;;;3.05;;
39994;SDS011;25686;51.908;10.418;2022-12-18T09:59:30;4.28;;;3.13;;
39994;SDS011;25686;51.908;10.418;2022-12-18T10:01:32;7.03;;;3.17;;
39994;SDS011;25686;51.908;10.418;2022-12-18T10:03:33;5.97;;;2.85;;
39994;SDS011;25686;51.908;10.418;2022-12-18T10:11:55;5.18;;;2.30;;
39994;SDS011;25686;51.908;10.418;2022-12-18T10:14:06;3.47;;;2.20;;
39994;SDS011;25686;51.908;10.418;2022-12-18T10:16:14;3.57;;;1.50;;
39994;SDS011;25686;51.908;10.418;2022-12-18T10:20:34;5.37;;;2.77;;
39994;SDS011;25686;51.908;10.418;2022-12-18T10:22:40;4.37;;;2.23;;
39994;SDS011;25686;51.908;10.418;2022-12-18T10:24:55;3.23;;;1.60;;
39994;SDS011;25686;51.908;10.418;2022-12-18T10:27:22;2.20;;;1.20;;
39994;SDS011;25686;51.908;10.418;2022-12-18T10:29:21;4.77;;;1.67;;
39994;SDS011;25686;51.908;10.418;2022-12-18T10:31:23;2.80;;;1.30;;
39994;SDS011;25686;51.908;10.418;2022-12-18T10:33:27;94.97;;;30.23;;
39994;SDS011;25686;51.908;10.418;2022-12-18T10:35:29;25.73;;;7.80;;
39994;SDS011;25686;51.908;10.418;2022-12-18T10:37:30;10.67;;;4.27;;
39994;SDS011;25686;51.908;10.418;2022-12-18T10:39:31;8.80;;;4.27;;
39994;SDS011;25686;51.908;10.418;2022-12-18T10:41:32;6.67;;;3.47;;
39994;SDS011;25686;51.908;10.418;2022-12-18T10:43:37;5.93;;;2.37;;
39994;SDS011;25686;51.908;10.418;2022-12-18T10:45:38;3.77;;;2.43;;
39994;SDS011;25686;51.908;10.418;2022-12-18T10:47:49;5.00;;;2.50;;
39994;SDS011;25686;51.908;10.418;2022-12-18T10:49:51;5.10;;;2.50;;
39994;SDS011;25686;51.908;10.418;2022-12-18T10:52:11;6.20;;;2.73;;
39994;SDS011;25686;51.908;10.418;2022-12-18T10:54:17;10.93;;;6.77;;
39994;SDS011;25686;51.908;10.418;2022-12-18T10:56:20;7.10;;;4.50;;
39994;SDS011;25686;51.908;10.418;2022-12-18T10:58:28;5.50;;;2.63;;
39994;SDS011;25686;51.908;10.418;2022-12-18T11:00:31;10.37;;;5.87;;
39994;SDS011;25686;51.908;10.418;2022-12-18T11:02:36;9.83;;;6.03;;
39994;SDS011;25686;51.908;10.418;2022-12-18T11:04:38;11.10;;;5.57;;
39994;SDS011;25686;51.908;10.418;2022-12-18T11:07:06;3.63;;;2.40;;
39994;SDS011;25686;51.908;10.418;2022-12-18T11:09:20;3.87;;;1.67;;
39994;SDS011;25686;51.908;10.418;2022-12-18T11:11:22;4.07;;;1.40;;
39994;SDS011;25686;51.908;10.418;2022-12-18T11:13:24;3.03;;;1.50;;
39994;SDS011;25686;51.908;10.418;2022-12-18T11:15:27;2.83;;;1.60;;
39994;SDS011;25686;51.908;10.418;2022-12-18T11:19:34;2.83;;;1.57;;
39994;SDS011;25686;51.908;10.418;2022-12-18T11:21:38;5.43;;;1.97;;
39994;SDS011;25686;51.908;10.418;2022-12-18T11:23:46;2.23;;;1.57;;
39994;SDS011;25686;51.908;10.418;2022-12-18T11:25:57;4.93;;;2.30;;
39994;SDS011;25686;51.908;10.418;2022-12-18T11:28:03;3.77;;;2.40;;
39994;SDS011;25686;51.908;10.418;2022-12-18T11:30:21;6.90;;;2.93;;
39994;SDS011;25686;51.908;10.418;2022-12-18T11:32:33;13.50;;;6.80;;
39994;SDS011;25686;51.908;10.418;2022-12-18T11:34:34;12.73;;;9.20;;
39994;SDS011;25686;51.908;10.418;2022-12-18T11:36:37;27.63;;;18.57;;
39994;SDS011;25686;51.908;10.418;2022-12-18T11:38:40;10.73;;;6.30;;
39994;SDS011;25686;51.908;10.418;2022-12-18T11:40:43;17.40;;;11.30;;
39994;SDS011;25686;51.908;10.418;2022-12-18T11:42:50;13.90;;;5.17;;
39994;SDS011;25686;51.908;10.418;2022-12-18T11:44:54;10.17;;;4.80;;
39994;SDS011;25686;51.908;10.418;2022-12-18T11:49:26;9.87;;;4.80;;
39994;SDS011;25686;51.908;10.418;2022-12-18T11:51:30;10.03;;;5.50;;
39994;SDS011;25686;51.908;10.418;2022-12-18T11:53:34;9.90;;;5.50;;
39994;SDS011;25686;51.908;10.418;2022-12-18T11:55:49;10.40;;;5.70;;
39994;SDS011;25686;51.908;10.418;2022-12-18T12:00:21;10.80;;;5.20;;
39994;SDS011;25686;51.908;10.418;2022-12-18T12:02:33;10.17;;;5.70;;
39994;SDS011;25686;51.908;10.418;2022-12-18T12:09:00;14.17;;;7.53;;
39994;SDS011;25686;51.908;10.418;2022-12-18T12:11:10;13.77;;;8.13;;
39994;SDS011;25686;51.908;10.418;2022-12-18T12:21:41;16.80;;;8.90;;
39994;SDS011;25686;51.908;10.418;2022-12-18T12:23:52;17.63;;;8.80;;
39994;SDS011;25686;51.908;10.418;2022-12-18T12:30:20;19.67;;;8.90;;
39994;SDS011;25686;51.908;10.418;2022-12-18T12:32:25;19.37;;;9.60;;
39994;SDS011;25686;51.908;10.418;2022-12-18T12:34:34;17.03;;;8.90;;
39994;SDS011;25686;51.908;10.418;2022-12-18T12:36:50;16.73;;;7.93;;
39994;SDS011;25686;51.908;10.418;2022-12-18T12:38:54;18.27;;;9.00;;
39994;SDS011;25686;51.908;10.418;2022-12-18T12:40:59;18.73;;;8.27;;
39994;SDS011;25686;51.908;10.418;2022-12-18T12:43:03;13.90;;;7.77;;
39994;SDS011;25686;51.908;10.418;2022-12-18T12:45:16;14.97;;;7.87;;
39994;SDS011;25686;51.908;10.418;2022-12-18T12:47:20;17.67;;;9.30;;
39994;SDS011;25686;51.908;10.418;2022-12-18T12:49:22;20.07;;;8.33;;
39994;SDS011;25686;51.908;10.418;2022-12-18T12:51:28;16.33;;;8.47;;
39994;SDS011;25686;51.908;10.418;2022-12-18T12:53:32;20.40;;;9.47;;
39994;SDS011;25686;51.908;10.418;2022-12-18T12:55:34;256.87;;;68.20;;
39994;SDS011;25686;51.908;10.418;2022-12-18T12:58:24;128.20;;;41.40;;
39994;SDS011;25686;51.908;10.418;2022-12-18T13:02:06;29.50;;;15.83;;
39994;SDS011;25686;51.908;10.418;2022-12-18T13:04:18;20.70;;;11.73;;